createdAt,value
2018-12-21T00:02:12.524Z,1.60
2018-12-21T00:04:42.205Z,2.00
2018-12-21T00:07:10.824Z,1.77
2018-12-21T00:09:39.524Z,2.02
2018-12-21T00:12:08.282Z,1.40
2018-12-21T00:14:36.993Z,2.02
2018-12-21T00:17:05.813Z,1.70
2018-12-21T00:19:34.915Z,1.80
2018-12-21T00:22:04.069Z,1.60
2018-12-21T00:24:33.653Z,1.77
2018-12-21T00:27:02.984Z,1.47
2018-12-21T00:29:31.597Z,1.55
2018-12-21T00:32:06.125Z,1.67
2018-12-21T00:34:40.495Z,1.55
2018-12-21T00:37:14.863Z,1.60
2018-12-21T00:39:48.694Z,1.80
2018-12-21T00:42:38.736Z,1.87
2018-12-21T00:45:12.200Z,1.60
2018-12-21T00:47:41.068Z,1.82
2018-12-21T00:50:10.651Z,2.10
2018-12-21T00:52:39.267Z,2.08
2018-12-21T00:55:08.115Z,1.40
2018-12-21T00:57:36.920Z,1.80
2018-12-21T01:00:07.221Z,1.37
2018-12-21T01:02:36.081Z,1.70
2018-12-21T01:05:04.941Z,1.70
2018-12-21T01:07:33.747Z,1.98
2018-12-21T01:10:03.313Z,1.77
2018-12-21T01:12:32.881Z,1.95
2018-12-21T01:15:01.703Z,2.05
2018-12-21T01:17:30.781Z,1.60
2018-12-21T01:19:59.736Z,1.47
2018-12-21T01:22:28.429Z,1.67
2018-12-21T01:24:57.415Z,1.75
2018-12-21T01:27:26.321Z,1.85
2018-12-21T01:29:55.857Z,1.72
2018-12-21T01:32:24.504Z,1.50
2018-12-21T01:34:53.601Z,1.60
2018-12-21T01:37:22.766Z,1.70
2018-12-21T01:39:52.188Z,1.95
2018-12-21T01:42:21.637Z,1.50
2018-12-21T01:44:50.213Z,2.02
2018-12-21T01:47:18.854Z,1.90
2018-12-21T01:49:47.538Z,1.98
2018-12-21T01:52:16.246Z,1.98
2018-12-21T01:54:44.967Z,1.67
2018-12-21T01:57:13.694Z,1.80
2018-12-21T01:59:42.500Z,1.77
2018-12-21T02:02:11.202Z,1.62
2018-12-21T02:04:39.896Z,1.40
2018-12-21T02:07:09.331Z,1.60
2018-12-21T02:09:37.995Z,1.90
2018-12-21T02:12:06.639Z,1.80
2018-12-21T02:14:36.046Z,2.30
2018-12-21T02:17:04.676Z,1.75
2018-12-21T02:19:34.055Z,2.00
2018-12-21T02:22:02.969Z,1.82
2018-12-21T02:24:32.370Z,1.82
2018-12-21T02:27:01.466Z,2.10
2018-12-21T02:29:30.329Z,2.15
2018-12-21T02:31:59.044Z,1.57
2018-12-21T02:34:28.233Z,1.95
2018-12-21T02:36:57.116Z,2.05
2018-12-21T02:39:26.544Z,1.72
2018-12-21T02:41:56.013Z,1.62
2018-12-21T02:44:24.900Z,2.02
2018-12-21T02:46:53.767Z,1.75
2018-12-21T02:49:22.561Z,2.33
2018-12-21T02:51:51.586Z,2.22
2018-12-21T02:54:20.197Z,2.30
2018-12-21T02:56:49.503Z,2.00
2018-12-21T02:59:18.590Z,2.10
2018-12-21T03:01:47.636Z,2.17
2018-12-21T03:04:17.087Z,1.95
2018-12-21T03:06:46.184Z,2.37
2018-12-21T03:09:15.180Z,2.40
2018-12-21T03:11:44.688Z,2.40
2018-12-21T03:14:13.447Z,2.20
2018-12-21T03:16:42.340Z,2.25
2018-12-21T03:19:11.212Z,2.02
2018-12-21T03:21:39.923Z,2.10
2018-12-21T03:24:08.519Z,2.30
2018-12-21T03:26:38.026Z,2.30
2018-12-21T03:29:06.878Z,2.30
2018-12-21T03:31:35.646Z,2.08
2018-12-21T03:34:04.473Z,1.98
2018-12-21T03:36:33.601Z,1.90
2018-12-21T03:39:02.543Z,2.00
2018-12-21T03:41:31.243Z,2.05
2018-12-21T03:44:00.665Z,2.10
2018-12-21T03:46:30.230Z,1.77
2018-12-21T03:48:58.961Z,2.00
2018-12-21T03:51:27.513Z,1.70
2018-12-21T03:53:57.202Z,1.92
2018-12-21T03:56:25.933Z,1.87
2018-12-21T03:58:57.641Z,1.60
2018-12-21T04:01:26.913Z,1.65
2018-12-21T04:03:56.383Z,2.10
2018-12-21T04:06:25.303Z,1.82
2018-12-21T04:08:54.303Z,2.02
2018-12-21T04:11:23.098Z,1.92
2018-12-21T04:13:52.583Z,1.70
2018-12-21T04:16:21.590Z,2.02
2018-12-21T04:18:50.441Z,1.95
2018-12-21T04:21:19.102Z,1.80
2018-12-21T04:23:47.956Z,1.80
2018-12-21T04:26:17.311Z,1.92
2018-12-21T04:28:46.757Z,2.20
2018-12-21T04:31:15.350Z,1.70
2018-12-21T04:33:43.990Z,1.77
2018-12-21T04:36:13.358Z,2.10
2018-12-21T04:38:43.167Z,1.50
2018-12-21T04:41:11.799Z,1.92
2018-12-21T04:43:41.134Z,2.08
2018-12-21T04:46:10.646Z,1.70
2018-12-21T04:48:39.377Z,1.87
2018-12-21T04:51:08.613Z,2.10
2018-12-21T04:53:38.341Z,1.42
2018-12-21T04:56:07.714Z,1.35
2018-12-21T04:58:37.151Z,1.52
2018-12-21T05:01:06.537Z,1.60
2018-12-21T05:03:35.475Z,1.60
2018-12-21T05:06:04.373Z,1.60
2018-12-21T05:08:33.049Z,1.80
2018-12-21T05:11:02.171Z,1.57
2018-12-21T05:13:31.735Z,1.85
2018-12-21T05:16:01.452Z,1.40
2018-12-21T05:18:30.119Z,1.80
2018-12-21T05:20:58.659Z,2.70
2018-12-21T05:23:27.540Z,2.50
2018-12-21T05:25:56.623Z,2.47
2018-12-21T05:28:26.067Z,2.27
2018-12-21T05:30:54.724Z,2.40
2018-12-21T05:33:23.482Z,1.60
2018-12-21T05:35:53.051Z,2.37
2018-12-21T05:38:22.329Z,2.58
2018-12-21T05:40:51.052Z,2.83
2018-12-21T05:43:20.381Z,2.70
2018-12-21T05:45:48.944Z,2.60
2018-12-21T05:48:17.732Z,2.62
2018-12-21T05:50:47.175Z,1.90
2018-12-21T05:53:17.715Z,2.10
2018-12-21T05:55:47.188Z,2.20
2018-12-21T05:58:15.937Z,1.77
2018-12-21T06:00:44.836Z,1.50
2018-12-21T06:03:13.404Z,1.60
2018-12-21T06:05:42.035Z,1.42
2018-12-21T06:08:10.597Z,1.52
2018-12-21T06:10:39.464Z,1.47
2018-12-21T06:13:09.037Z,1.82
2018-12-21T06:15:38.163Z,1.90
2018-12-21T06:18:07.081Z,1.52
2018-12-21T06:20:36.287Z,1.80
2018-12-21T06:23:09.497Z,1.80
2018-12-21T06:25:36.882Z,1.72
2018-12-21T06:28:06.363Z,1.82
2018-12-21T06:30:35.368Z,1.50
2018-12-21T06:33:04.432Z,1.72
2018-12-21T06:35:33.923Z,1.92
2018-12-21T06:38:02.524Z,1.77
2018-12-21T06:40:31.677Z,1.47
2018-12-21T06:43:00.544Z,2.10
2018-12-21T06:45:29.188Z,1.52
2018-12-21T06:47:58.400Z,1.52
2018-12-21T06:50:27.042Z,1.50
2018-12-21T06:52:56.412Z,1.20
2018-12-21T06:55:25.163Z,1.40
2018-12-21T06:57:54.157Z,1.22
2018-12-21T07:00:23.123Z,1.40
2018-12-21T07:02:52.105Z,1.87
2018-12-21T07:05:20.955Z,1.07
2018-12-21T07:07:49.896Z,1.35
2018-12-21T07:10:18.794Z,1.05
2018-12-21T07:12:48.305Z,1.50
2018-12-21T07:15:17.728Z,1.02
2018-12-21T07:17:46.408Z,1.52
2018-12-21T07:20:15.826Z,1.77
2018-12-21T07:22:47.683Z,1.45
2018-12-21T07:25:18.043Z,1.25
2018-12-21T07:27:47.397Z,1.25
2018-12-21T07:30:17.507Z,1.60
2018-12-21T07:32:46.315Z,1.50
2018-12-21T07:35:16.904Z,1.40
2018-12-21T07:37:46.181Z,1.30
2018-12-21T07:40:15.098Z,1.20
2018-12-21T07:42:44.711Z,1.10
2018-12-21T07:45:13.727Z,1.67
2018-12-21T07:47:42.740Z,1.62
2018-12-21T07:50:12.304Z,1.52
2018-12-21T07:52:41.701Z,1.47
2018-12-21T07:55:11.594Z,1.57
2018-12-21T07:57:40.295Z,1.50
2018-12-21T08:00:12.650Z,1.32
2018-12-21T08:02:42.170Z,1.10
2018-12-21T08:05:11.469Z,1.30
2018-12-21T08:07:40.240Z,1.37
2018-12-21T08:10:15.332Z,1.52
2018-12-21T08:12:44.062Z,1.22
2018-12-21T08:15:13.449Z,1.30
2018-12-21T08:17:43.004Z,1.20
2018-12-21T08:20:11.945Z,1.45
2018-12-21T08:22:41.216Z,1.22
2018-12-21T08:25:10.781Z,1.42
2018-12-21T08:27:40.257Z,1.70
2018-12-21T08:30:10.427Z,1.05
2018-12-21T08:32:40.177Z,1.50
2018-12-21T08:35:09.529Z,1.30
2018-12-21T08:37:38.521Z,1.30
2018-12-21T08:40:09.235Z,1.22
2018-12-21T08:42:37.838Z,1.22
2018-12-21T08:45:09.044Z,1.32
2018-12-21T08:47:37.741Z,1.00
2018-12-21T08:50:10.047Z,0.80
2018-12-21T08:52:39.383Z,1.00
2018-12-21T08:55:08.461Z,1.07
2018-12-21T08:57:37.096Z,1.22
2018-12-21T09:00:08.440Z,0.80
2018-12-21T09:02:37.891Z,0.90
2018-12-21T09:05:07.281Z,0.80
2018-12-21T09:07:37.333Z,1.07
2018-12-21T09:10:08.292Z,0.88
2018-12-21T09:12:38.273Z,1.00
2018-12-21T09:15:10.579Z,0.80
2018-12-21T09:17:39.675Z,0.80
2018-12-21T09:20:10.196Z,1.00
2018-12-21T09:22:39.274Z,0.88
2018-12-21T09:25:08.439Z,0.90
2018-12-21T09:27:38.068Z,1.00
2018-12-21T09:30:11.467Z,1.20
2018-12-21T09:32:40.588Z,1.25
2018-12-21T09:35:09.537Z,1.12
2018-12-21T09:37:38.382Z,1.30
2018-12-21T09:40:10.532Z,1.20
2018-12-21T09:42:40.171Z,1.17
2018-12-21T09:45:09.196Z,1.62
2018-12-21T09:47:37.905Z,1.67
2018-12-21T09:50:08.791Z,1.60
2018-12-21T09:52:38.272Z,1.75
2018-12-21T09:55:08.868Z,1.20
2018-12-21T09:57:38.486Z,0.98
2018-12-21T10:00:11.040Z,0.90
2018-12-21T10:02:41.448Z,1.00
2018-12-21T10:05:14.630Z,0.90
2018-12-21T10:07:44.198Z,0.90
2018-12-21T10:10:13.379Z,0.85
2018-12-21T10:12:42.578Z,1.15
2018-12-21T10:15:11.268Z,1.00
2018-12-21T10:17:40.652Z,1.00
2018-12-21T10:20:09.984Z,0.88
2018-12-21T10:22:39.773Z,0.70
2018-12-21T10:25:08.735Z,1.10
2018-12-21T10:27:37.786Z,1.05
2018-12-21T10:30:09.217Z,1.80
2018-12-21T10:32:38.120Z,1.40
2018-12-21T10:35:07.299Z,1.60
2018-12-21T10:37:35.991Z,1.10
2018-12-21T10:40:05.328Z,1.37
2018-12-21T10:42:34.581Z,1.30
2018-12-21T10:45:03.576Z,1.55
2018-12-21T10:47:33.112Z,1.47
2018-12-21T10:50:02.700Z,1.20
2018-12-21T10:52:32.851Z,1.87
2018-12-21T10:55:01.987Z,1.55
2018-12-21T10:57:30.749Z,2.00
2018-12-21T11:00:00.113Z,1.57
2018-12-21T11:02:29.164Z,1.40
2018-12-21T11:04:57.879Z,0.95
2018-12-21T11:07:26.630Z,1.50
2018-12-21T11:09:56.317Z,1.37
2018-12-21T11:12:24.920Z,1.40
2018-12-21T11:14:54.362Z,1.15
2018-12-21T11:17:23.893Z,1.10
2018-12-21T11:19:52.898Z,1.10
2018-12-21T11:22:21.772Z,1.20
2018-12-21T11:24:50.402Z,1.37
2018-12-21T11:27:20.088Z,1.15
2018-12-21T11:29:49.650Z,1.27
2018-12-21T11:32:20.086Z,1.17
2018-12-21T11:34:48.862Z,1.20
2018-12-21T11:37:17.947Z,1.82
2018-12-21T11:39:46.814Z,1.37
2018-12-21T11:42:16.100Z,1.15
2018-12-21T11:44:44.700Z,1.07
2018-12-21T11:47:14.354Z,1.30
2018-12-21T11:49:42.941Z,1.57
2018-12-21T11:52:12.206Z,1.20
2018-12-21T11:54:44.458Z,1.47
2018-12-21T11:57:12.403Z,0.93
2018-12-21T11:59:45.019Z,1.37
2018-12-21T12:02:19.537Z,1.40
2018-12-21T12:04:43.265Z,1.20
2018-12-21T12:07:12.504Z,1.07
2018-12-21T12:09:41.356Z,1.50
2018-12-21T12:12:10.520Z,1.27
2018-12-21T12:14:39.856Z,1.22
2018-12-21T12:17:08.642Z,1.20
2018-12-21T12:19:37.327Z,1.52
2018-12-21T12:22:06.447Z,1.42
2018-12-21T12:24:35.570Z,1.17
2018-12-21T12:27:04.400Z,1.60
2018-12-21T12:29:33.227Z,1.30
2018-12-21T12:32:02.047Z,1.02
2018-12-21T12:34:31.062Z,1.82
2018-12-21T12:37:00.474Z,1.60
2018-12-21T12:39:29.855Z,1.50
2018-12-21T12:41:59.509Z,1.40
2018-12-21T12:44:28.924Z,1.32
2018-12-21T12:46:58.505Z,1.67
2018-12-21T12:49:28.068Z,2.10
2018-12-21T12:51:56.880Z,3.15
2018-12-21T12:54:26.016Z,2.95
2018-12-21T12:56:55.103Z,3.00
2018-12-21T12:59:24.042Z,2.12
2018-12-21T13:01:53.696Z,1.90
2018-12-21T13:04:23.228Z,1.60
2018-12-21T13:06:52.748Z,1.60
2018-12-21T13:09:22.407Z,1.40
2018-12-21T13:11:51.954Z,1.80
2018-12-21T13:14:21.387Z,2.20
2018-12-21T13:16:50.640Z,1.67
2018-12-21T13:19:20.053Z,1.70
2018-12-21T13:21:49.001Z,1.70
2018-12-21T13:24:18.496Z,1.77
2018-12-21T13:26:48.101Z,1.50
2018-12-21T13:29:16.920Z,1.62
2018-12-21T13:31:45.986Z,1.82
2018-12-21T13:34:14.699Z,1.57
2018-12-21T13:36:44.562Z,2.05
2018-12-21T13:39:13.796Z,2.00
2018-12-21T13:41:43.039Z,1.60
2018-12-21T13:44:12.868Z,1.90
2018-12-21T13:46:41.644Z,2.17
2018-12-21T13:49:10.249Z,1.80
2018-12-21T13:51:39.176Z,2.15
2018-12-21T13:54:08.177Z,1.90
2018-12-21T13:56:37.203Z,1.50
2018-12-21T13:59:06.156Z,1.57
2018-12-21T14:01:35.281Z,1.47
2018-12-21T14:04:04.370Z,1.70
2018-12-21T14:06:33.945Z,1.92
2018-12-21T14:09:03.911Z,1.65
2018-12-21T14:11:32.882Z,2.27
2018-12-21T14:14:01.661Z,1.90
2018-12-21T14:16:30.860Z,2.22
2018-12-21T14:18:59.891Z,1.90
2018-12-21T14:21:28.857Z,1.65
2018-12-21T14:23:57.930Z,2.40
2018-12-21T14:26:27.166Z,2.00
2018-12-21T14:28:56.108Z,2.22
2018-12-21T14:31:25.482Z,2.25
2018-12-21T14:33:55.429Z,2.22
2018-12-21T14:36:24.184Z,1.90
2018-12-21T14:38:52.841Z,2.45
2018-12-21T14:41:21.695Z,1.92
2018-12-21T14:43:50.659Z,1.92
2018-12-21T14:46:19.759Z,1.90
2018-12-21T14:48:49.021Z,2.20
2018-12-21T14:51:18.522Z,1.95
2018-12-21T14:53:47.412Z,1.82
2018-12-21T14:56:16.159Z,2.22
2018-12-21T14:58:45.703Z,2.20
2018-12-21T15:01:14.886Z,1.90
2018-12-21T15:03:44.269Z,2.37
2018-12-21T15:06:12.912Z,2.35
2018-12-21T15:08:41.885Z,2.50
2018-12-21T15:11:10.881Z,2.00
2018-12-21T15:13:39.932Z,2.10
2018-12-21T15:16:08.750Z,2.17
2018-12-21T15:18:37.858Z,2.20
2018-12-21T15:21:06.788Z,2.15
2018-12-21T15:23:35.712Z,2.25
2018-12-21T15:26:04.707Z,2.72
2018-12-21T15:28:33.524Z,2.30
2018-12-21T15:31:02.400Z,1.92
2018-12-21T15:33:31.323Z,2.30
2018-12-21T15:36:00.979Z,1.80
2018-12-21T15:38:30.622Z,1.70
2018-12-21T15:40:59.963Z,2.30
2018-12-21T15:43:28.834Z,1.67
2018-12-21T15:45:57.977Z,2.10
2018-12-21T15:48:26.583Z,2.22
2018-12-21T15:50:55.204Z,2.02
2018-12-21T15:53:24.673Z,2.33
2018-12-21T15:55:54.944Z,3.00
2018-12-21T15:58:25.209Z,1.90
2018-12-21T16:00:54.432Z,2.00
2018-12-21T16:03:23.939Z,1.92
2018-12-21T16:05:53.318Z,1.80
2018-12-21T16:08:23.006Z,2.00
2018-12-21T16:10:52.161Z,2.10
2018-12-21T16:13:21.517Z,1.98
2018-12-21T16:15:50.891Z,1.50
2018-12-21T16:18:19.857Z,1.75
2018-12-21T16:20:49.274Z,1.87
2018-12-21T16:23:18.196Z,2.20
2018-12-21T16:25:47.806Z,2.00
2018-12-21T16:28:16.648Z,2.05
2018-12-21T16:30:45.627Z,1.52
2018-12-21T16:33:17.827Z,1.98
2018-12-21T16:35:47.722Z,1.92
2018-12-21T16:38:16.691Z,2.10
2018-12-21T16:40:45.858Z,1.65
2018-12-21T16:43:15.132Z,1.62
2018-12-21T16:45:44.192Z,1.57
2018-12-21T16:48:14.174Z,1.70
2018-12-21T16:50:42.822Z,1.60
2018-12-21T16:53:12.285Z,1.65
2018-12-21T16:55:41.808Z,1.57
2018-12-21T16:58:11.191Z,1.50
2018-12-21T17:00:41.036Z,1.50
2018-12-21T17:03:16.367Z,1.95
2018-12-21T17:05:45.843Z,1.90
2018-12-21T17:08:15.473Z,1.55
2018-12-21T17:10:45.068Z,1.67
2018-12-21T17:13:14.096Z,2.02
2018-12-21T17:15:43.079Z,1.75
2018-12-21T17:18:12.728Z,1.67
2018-12-21T17:20:42.708Z,2.00
2018-12-21T17:23:11.276Z,1.90
2018-12-21T17:25:40.393Z,2.20
2018-12-21T17:28:09.980Z,1.90
2018-12-21T17:30:39.617Z,1.87
2018-12-21T17:33:08.487Z,1.98
2018-12-21T17:35:37.600Z,2.30
2018-12-21T17:38:07.156Z,2.00
2018-12-21T17:40:36.576Z,1.90
2018-12-21T17:43:05.808Z,2.60
2018-12-21T17:45:34.597Z,2.72
2018-12-21T17:48:03.841Z,2.50
2018-12-21T17:50:32.774Z,2.33
2018-12-21T17:53:02.196Z,2.42
2018-12-21T17:55:30.808Z,2.58
2018-12-21T17:58:00.464Z,2.40
2018-12-21T18:00:29.563Z,2.40
2018-12-21T18:02:59.170Z,2.37
2018-12-21T18:05:28.042Z,2.55
2018-12-21T18:07:57.776Z,3.75
2018-12-21T18:10:26.680Z,3.05
2018-12-21T18:12:55.575Z,2.70
2018-12-21T18:15:25.078Z,2.70
2018-12-21T18:17:53.684Z,2.37
2018-12-21T18:20:23.291Z,2.40
2018-12-21T18:22:53.056Z,2.20
2018-12-21T18:25:25.376Z,2.40
2018-12-21T18:27:56.977Z,2.60
2018-12-21T18:30:36.041Z,2.60
2018-12-21T18:33:10.961Z,2.27
2018-12-21T18:35:39.153Z,2.30
2018-12-21T18:38:12.767Z,2.45
2018-12-21T18:40:42.227Z,2.40
2018-12-21T18:43:17.455Z,2.80
2018-12-21T18:45:47.305Z,2.45
2018-12-21T18:48:16.156Z,2.55
2018-12-21T18:50:45.080Z,2.27
2018-12-21T18:53:14.369Z,2.10
2018-12-21T18:55:44.464Z,2.33
2018-12-21T18:58:13.703Z,2.42
2018-12-21T19:00:42.583Z,2.40
2018-12-21T19:03:11.292Z,2.45
2018-12-21T19:05:40.611Z,2.17
2018-12-21T19:08:10.118Z,2.33
2018-12-21T19:10:39.813Z,2.08
2018-12-21T19:13:09.396Z,2.75
2018-12-21T19:15:38.037Z,2.60
2018-12-21T19:18:06.751Z,2.22
2018-12-21T19:20:35.859Z,2.40
2018-12-21T19:23:04.608Z,2.45
2018-12-21T19:25:33.691Z,2.00
2018-12-21T19:28:03.140Z,2.22
2018-12-21T19:30:32.035Z,2.25
2018-12-21T19:33:01.645Z,2.08
2018-12-21T19:35:32.172Z,2.33
2018-12-21T19:38:01.748Z,2.87
2018-12-21T19:40:31.368Z,2.45
2018-12-21T19:43:00.825Z,2.58
2018-12-21T19:45:29.544Z,2.40
2018-12-21T19:47:58.269Z,2.35
2018-12-21T19:50:26.947Z,2.45
2018-12-21T19:52:55.550Z,2.75
2018-12-21T19:55:32.148Z,2.75
2018-12-21T19:58:02.066Z,2.55
2018-12-21T20:00:30.638Z,3.12
2018-12-21T20:02:59.490Z,3.35
2018-12-21T20:05:28.189Z,3.40
2018-12-21T20:07:57.001Z,3.12
2018-12-21T20:10:25.853Z,2.92
2018-12-21T20:12:54.869Z,4.55
2018-12-21T20:15:23.757Z,3.60
2018-12-21T20:17:52.736Z,3.92
2018-12-21T20:20:21.828Z,3.67
2018-12-21T20:22:51.430Z,3.50
2018-12-21T20:25:20.124Z,3.42
2018-12-21T20:27:49.217Z,3.12
2018-12-21T20:30:19.967Z,3.40
2018-12-21T20:32:49.685Z,3.37
2018-12-21T20:35:19.329Z,3.15
2018-12-21T20:37:48.206Z,3.02
2018-12-21T20:40:17.255Z,2.60
2018-12-21T20:42:46.867Z,3.08
2018-12-21T20:45:15.662Z,2.60
2018-12-21T20:47:44.475Z,3.20
2018-12-21T20:50:15.655Z,3.02
2018-12-21T20:52:44.960Z,3.30
2018-12-21T20:55:14.588Z,3.10
2018-12-21T20:57:45.575Z,2.92
2018-12-21T21:00:15.654Z,2.80
2018-12-21T21:02:45.117Z,3.20
2018-12-21T21:05:13.901Z,2.60
2018-12-21T21:07:43.081Z,2.80
2018-12-21T21:10:12.702Z,2.98
2018-12-21T21:12:41.839Z,2.50
2018-12-21T21:15:12.111Z,2.55
2018-12-21T21:17:40.905Z,2.52
2018-12-21T21:20:12.566Z,2.30
2018-12-21T21:22:41.400Z,2.40
2018-12-21T21:25:10.114Z,2.22
2018-12-21T21:27:39.569Z,2.10
2018-12-21T21:30:13.003Z,2.37
2018-12-21T21:32:41.714Z,2.62
2018-12-21T21:35:10.837Z,2.10
2018-12-21T21:37:40.679Z,2.33
2018-12-21T21:40:14.963Z,2.25
2018-12-21T21:42:43.617Z,1.95
2018-12-21T21:45:12.980Z,2.10
2018-12-21T21:47:42.605Z,1.87
2018-12-21T21:50:12.450Z,2.12
2018-12-21T21:52:41.383Z,2.20
2018-12-21T21:55:10.533Z,1.82
2018-12-21T21:57:39.838Z,1.60
2018-12-21T22:00:11.980Z,1.70
2018-12-21T22:02:41.058Z,1.70
2018-12-21T22:05:09.809Z,1.80
2018-12-21T22:07:39.028Z,1.95
2018-12-21T22:10:10.844Z,1.80
2018-12-21T22:12:39.813Z,2.10
2018-12-21T22:15:09.903Z,1.82
2018-12-21T22:17:38.745Z,2.35
2018-12-21T22:20:10.954Z,1.70
2018-12-21T22:22:39.515Z,1.85
2018-12-21T22:25:08.917Z,2.00
2018-12-21T22:27:37.913Z,1.80
2018-12-21T22:30:10.007Z,2.22
2018-12-21T22:32:38.990Z,2.42
2018-12-21T22:35:08.888Z,2.65
2018-12-21T22:37:37.677Z,2.35
2018-12-21T22:40:08.023Z,2.50
2018-12-21T22:42:37.322Z,2.27
2018-12-21T22:45:07.388Z,2.02
2018-12-21T22:47:36.372Z,2.08
2018-12-21T22:50:06.536Z,2.20
2018-12-21T22:52:35.643Z,1.80
2018-12-21T22:55:05.237Z,1.82
2018-12-21T22:57:33.850Z,2.00
2018-12-21T23:00:04.711Z,1.70
2018-12-21T23:02:33.853Z,1.70
2018-12-21T23:05:02.641Z,1.27
2018-12-21T23:07:31.737Z,1.32
2018-12-21T23:10:01.741Z,1.37
2018-12-21T23:12:30.461Z,1.37
2018-12-21T23:14:59.486Z,1.25
2018-12-21T23:17:29.041Z,1.27
2018-12-21T23:19:57.738Z,1.30
2018-12-21T23:22:27.455Z,1.52
2018-12-21T23:24:56.150Z,1.05
2018-12-21T23:27:25.102Z,1.17
2018-12-21T23:29:53.739Z,0.90
2018-12-21T23:32:22.996Z,1.00
2018-12-21T23:34:52.709Z,0.80
2018-12-21T23:37:21.460Z,1.00
2018-12-21T23:39:51.216Z,0.90
2018-12-21T23:42:20.119Z,0.78
2018-12-21T23:44:49.164Z,0.70
2018-12-21T23:47:18.325Z,0.80
2018-12-21T23:49:47.276Z,0.60
2018-12-21T23:52:16.199Z,0.50
2018-12-21T23:54:46.012Z,0.70
2018-12-21T23:57:15.143Z,0.50
2018-12-21T23:59:45.017Z,0.60
